Time;durP1;ratioP1;P1;durP2;ratioP2;P2;SDS_P1;SDS_P2;PMS_P1;PMS_P2;Temp;Humidity;BMP_temperature;BMP_pressure;BME280_temperature;BME280_humidity;BME280_pressure;Samples;Min_cycle;Max_cycle;Signal;HPM_P1;HPM_P2
2023/06/24 00:00:18;;;;;;;5.27;4.77;;;;;;;16.05;93.95;99008.63;5030361;28;20236;-78
2023/06/24 00:02:45;;;;;;;5.87;4.33;;;;;;;16.01;94.08;98998.31;5030558;28;20237;-78
2023/06/24 00:05:12;;;;;;;5.13;4.63;;;;;;;16.00;94.32;98999.28;5031201;28;20299;-78
2023/06/24 00:07:44;;;;;;;5.97;5.20;;;;;;;15.96;95.58;99008.47;5033833;28;20211;-78
2023/06/24 00:10:11;;;;;;;5.27;4.60;;;;;;;15.97;95.47;99010.19;5044969;28;20624;-78
2023/06/24 00:12:39;;;;;;;6.57;5.30;;;;;;;15.96;94.99;99019.16;5049569;28;20251;-78
2023/06/24 00:15:07;;;;;;;5.37;4.87;;;;;;;15.93;95.35;99014.03;5042435;28;20272;-78
2023/06/24 00:17:35;;;;;;;5.50;5.00;;;;;;;15.91;95.35;99010.66;5039134;28;20209;-78
2023/06/24 00:20:04;;;;;;;6.07;5.17;;;;;;;15.86;96.05;99010.16;5044472;28;20241;-78
2023/06/24 00:22:30;;;;;;;5.30;4.80;;;;;;;15.85;96.40;99008.44;5034678;28;20259;-78
2023/06/24 00:24:57;;;;;;;5.60;4.47;;;;;;;15.84;96.20;99017.41;5031390;28;20212;-78
2023/06/24 00:27:24;;;;;;;5.20;4.60;;;;;;;15.81;96.94;99014.97;5032803;28;20263;-78
2023/06/24 00:29:50;;;;;;;5.40;4.90;;;;;;;15.77;97.04;99018.88;5033943;28;20325;-78
2023/06/24 00:32:16;;;;;;;6.07;5.00;;;;;;;15.70;96.92;99017.63;5033938;28;20235;-78
2023/06/24 00:34:45;;;;;;;5.67;4.50;;;;;;;15.69;96.31;99021.25;5034231;28;20209;-78
2023/06/24 00:37:11;;;;;;;5.70;5.03;;;;;;;15.60;95.97;99013.94;5034598;28;20216;-78
2023/06/24 00:39:37;;;;;;;4.80;4.40;;;;;;;15.45;96.07;99023.13;5033938;28;20208;-78
2023/06/24 00:42:04;;;;;;;4.93;4.43;;;;;;;15.31;96.20;99015.25;5033914;28;20232;-78
2023/06/24 00:44:31;;;;;;;5.40;4.80;;;;;;;15.22;98.06;99022.09;5034001;28;20209;-78
2023/06/24 00:46:57;;;;;;;6.37;5.17;;;;;;;15.15;98.45;99023.53;5033949;28;20209;-78
2023/06/24 00:49:24;;;;;;;5.27;4.73;;;;;;;15.07;99.50;99025.03;5033536;28;20224;-78
2023/06/24 00:51:52;;;;;;;7.23;5.27;;;;;;;15.01;100.00;99017.50;5033930;28;20201;-78
2023/06/24 00:54:20;;;;;;;6.47;5.00;;;;;;;14.96;100.00;99019.66;5034622;28;20324;-78
2023/06/24 00:56:47;;;;;;;7.83;5.30;;;;;;;14.96;100.00;99019.66;5033946;28;20217;-79
2023/06/24 00:59:16;;;;;;;7.47;5.27;;;;;;;14.95;100.00;99020.59;5033482;28;20201;-77
2023/06/24 01:01:45;;;;;;;5.27;4.77;;;;;;;14.92;100.00;99018.19;5031898;28;20773;-77
2023/06/24 01:04:11;;;;;;;5.20;4.63;;;;;;;14.87;100.00;99026.50;5031235;28;20204;-77
2023/06/24 01:06:43;;;;;;;5.47;4.93;;;;;;;14.80;100.00;99021.72;5031303;28;20668;-78
2023/06/24 01:09:11;;;;;;;5.30;4.80;;;;;;;14.76;100.00;99014.91;5031655;28;20236;-78
2023/06/24 01:11:38;;;;;;;5.17;4.27;;;;;;;14.70;100.00;99015.34;5033816;28;20196;-78
2023/06/24 01:14:04;;;;;;;6.00;5.40;;;;;;;14.66;100.00;99011.25;5033513;28;20205;-77
2023/06/24 01:16:38;;;;;;;5.87;5.23;;;;;;;14.65;100.00;99005.06;5033738;28;20680;-77
2023/06/24 01:19:24;;;;;;;5.70;5.20;;;;;;;14.66;100.00;99009.41;5033227;28;20212;-78
2023/06/24 01:22:01;;;;;;;5.57;4.97;;;;;;;14.68;100.00;99004.00;5033364;28;20729;-77
2023/06/24 01:24:48;;;;;;;6.07;5.10;;;;;;;14.68;100.00;99010.19;5033471;28;20212;-77
2023/06/24 01:27:44;;;;;;;6.57;5.30;;;;;;;14.73;100.00;99007.19;5033756;28;20213;-78
2023/06/24 01:30:40;;;;;;;5.47;4.83;;;;;;;14.79;100.00;99006.72;5033121;28;20262;-77
2023/06/24 01:33:10;;;;;;;6.30;5.43;;;;;;;14.83;100.00;99006.38;5032887;28;20241;-78
2023/06/24 01:35:39;;;;;;;6.47;4.80;;;;;;;14.85;100.00;98996.47;5033144;28;20223;-77
2023/06/24 01:38:11;;;;;;;5.80;4.80;;;;;;;14.88;100.00;98990.06;5032644;28;20204;-78
2023/06/24 01:40:41;;;;;;;5.90;5.10;;;;;;;14.91;100.00;98995.19;5032567;28;20232;-78
2023/06/24 01:43:10;;;;;;;6.10;4.90;;;;;;;14.93;100.00;98998.59;5032994;28;20296;-77
2023/06/24 01:45:43;;;;;;;5.10;4.60;;;;;;;14.95;100.00;98996.66;5032641;28;20212;-77
2023/06/24 01:48:15;;;;;;;5.07;4.57;;;;;;;14.93;100.00;98998.59;5033072;28;20215;-78
2023/06/24 01:50:45;;;;;;;5.50;5.00;;;;;;;14.87;100.00;98993.72;5032646;28;20585;-77
2023/06/24 01:53:13;;;;;;;6.10;4.70;;;;;;;14.84;100.00;98992.13;5032473;28;20673;-77
2023/06/24 01:55:42;;;;;;;5.07;4.47;;;;;;;14.81;100.00;98992.34;5032457;28;20213;-77
2023/06/24 01:58:11;;;;;;;5.20;4.70;;;;;;;14.80;100.00;98992.47;5032460;28;20216;-77
2023/06/24 02:00:38;;;;;;;5.40;4.90;;;;;;;14.78;100.00;98991.72;5032079;28;20236;-78
2023/06/24 02:03:07;;;;;;;5.27;4.77;;;;;;;14.78;100.00;98989.06;5032490;28;20228;-77
2023/06/24 02:05:39;;;;;;;5.90;5.27;;;;;;;14.74;100.00;98991.06;5032467;28;20560;-77
2023/06/24 02:08:07;;;;;;;5.20;4.70;;;;;;;14.76;100.00;98990.97;5032486;28;20668;-77
2023/06/24 02:10:33;;;;;;;6.00;5.03;;;;;;;14.74;100.00;98990.25;5031923;28;20204;-78
2023/06/24 02:13:00;;;;;;;5.43;4.87;;;;;;;14.73;100.00;98985.88;5032410;28;20237;-77
2023/06/24 02:15:29;;;;;;;6.00;5.23;;;;;;;14.72;100.00;98990.34;5032312;28;20288;-77
2023/06/24 02:17:57;;;;;;;5.60;5.03;;;;;;;14.68;100.00;98990.69;5032750;28;20215;-78
2023/06/24 02:20:27;;;;;;;5.97;5.37;;;;;;;14.66;100.00;98979.31;5031753;28;20213;-77
2023/06/24 02:22:57;;;;;;;6.67;5.30;;;;;;;14.64;100.00;98986.53;5031964;28;20225;-77
2023/06/24 02:25:24;;;;;;;6.50;5.73;;;;;;;14.57;100.00;98977.28;5032024;28;20647;-77
2023/06/24 02:27:52;;;;;;;6.93;5.40;;;;;;;14.48;100.00;98980.63;5032487;28;20220;-77
2023/06/24 02:30:19;;;;;;;7.03;5.63;;;;;;;14.40;100.00;98982.97;5031533;28;20216;-77
2023/06/24 02:32:46;;;;;;;7.03;5.37;;;;;;;14.34;100.00;98981.59;5032064;28;20232;-77
2023/06/24 02:35:13;;;;;;;5.63;5.10;;;;;;;14.34;100.00;98984.25;5031866;28;20690;-77
2023/06/24 02:37:39;;;;;;;6.13;5.00;;;;;;;14.29;100.00;98986.38;5031908;28;20208;-77
2023/06/24 02:40:09;;;;;;;6.60;5.47;;;;;;;14.28;100.00;98984.69;5031718;28;20212;-77
2023/06/24 02:42:36;;;;;;;5.60;5.10;;;;;;;14.23;100.00;98975.34;5031940;28;20236;-77
2023/06/24 02:45:03;;;;;;;6.80;5.40;;;;;;;14.17;100.00;98978.41;5031828;28;20212;-77
2023/06/24 02:47:30;;;;;;;8.27;6.27;;;;;;;14.14;100.00;98971.50;5031962;28;20212;-77
2023/06/24 02:49:58;;;;;;;8.23;6.30;;;;;;;14.16;100.00;98982.00;5031305;28;20240;-77
2023/06/24 02:52:28;;;;;;;7.37;6.37;;;;;;;14.17;100.00;98975.75;5050859;22;20224;-88
2023/06/24 02:54:55;;;;;;;7.50;6.13;;;;;;;14.18;100.00;98983.59;5071526;28;20245;-88
2023/06/24 02:57:25;;;;;;;6.90;6.23;;;;;;;14.22;100.00;98984.25;5071574;28;20207;-88
2023/06/24 02:59:51;;;;;;;6.90;5.97;;;;;;;14.24;100.00;98982.38;5071210;28;20254;-87
2023/06/24 03:02:18;;;;;;;6.90;6.10;;;;;;;14.23;100.00;98989.47;5071341;28;20227;-87
2023/06/24 03:04:46;;;;;;;7.77;6.00;;;;;;;14.24;100.00;98983.19;5071329;28;20211;-88
2023/06/24 03:07:12;;;;;;;6.90;5.73;;;;;;;14.27;100.00;98992.78;5071831;28;20230;-88
2023/06/24 03:09:39;;;;;;;7.20;5.93;;;;;;;14.29;100.00;98990.88;5071259;28;20329;-87
2023/06/24 03:12:07;;;;;;;6.87;6.17;;;;;;;14.31;100.00;98983.63;5071208;28;20210;-88
2023/06/24 03:14:35;;;;;;;8.10;6.30;;;;;;;14.33;100.00;98984.34;5071372;28;20206;-87
2023/06/24 03:17:01;;;;;;;7.03;6.27;;;;;;;14.31;100.00;98988.94;5071408;28;20598;-87
2023/06/24 03:19:28;;;;;;;7.87;6.30;;;;;;;14.31;100.00;98988.94;5071131;28;20214;-88
2023/06/24 03:21:54;;;;;;;8.07;6.77;;;;;;;14.29;100.00;98997.03;5071445;28;20231;-88
2023/06/24 03:24:21;;;;;;;8.93;6.77;;;;;;;14.30;100.00;98997.88;5071155;28;20234;-87
2023/06/24 03:26:47;;;;;;;7.47;6.50;;;;;;;14.34;100.00;98996.69;5071260;28;20211;-87
2023/06/24 03:29:14;;;;;;;7.60;6.50;;;;;;;14.32;100.00;99001.28;5071304;28;20211;-88
2023/06/24 03:31:43;;;;;;;9.43;6.93;;;;;;;14.39;100.00;99005.19;5072344;28;20207;-87
2023/06/24 03:34:10;;;;;;;9.13;7.50;;;;;;;14.38;100.00;99011.50;5074842;28;20231;-87
2023/06/24 03:36:38;;;;;;;8.07;6.53;;;;;;;14.42;100.00;99023.63;5073699;28;20207;-87
2023/06/24 03:39:05;;;;;;;9.13;7.17;;;;;;;14.46;100.00;99019.75;5070826;28;20214;-87
2023/06/24 03:41:31;;;;;;;7.10;6.40;;;;;;;14.50;100.00;99021.25;5070736;28;20250;-88
2023/06/24 03:43:58;;;;;;;8.00;7.00;;;;;;;14.54;100.00;99028.06;5070808;28;20231;-87
2023/06/24 03:46:25;;;;;;;8.77;6.87;;;;;;;14.58;100.00;99034.84;5070741;28;20222;-88
2023/06/24 03:48:53;;;;;;;9.33;7.50;;;;;;;14.62;100.00;99025.72;5071262;28;20234;-88
2023/06/24 03:51:19;;;;;;;9.03;6.70;;;;;;;14.63;100.00;99028.28;5070830;28;20235;-87
2023/06/24 03:53:46;;;;;;;8.93;7.20;;;;;;;14.65;100.00;99031.66;5071242;28;20258;-87
2023/06/24 03:56:12;;;;;;;8.00;6.73;;;;;;;14.68;100.00;99026.13;5071225;28;20216;-88
2023/06/24 03:58:39;;;;;;;8.57;6.90;;;;;;;14.74;100.00;99031.00;5071109;28;20746;-88
2023/06/24 04:01:05;;;;;;;7.87;7.07;;;;;;;14.80;100.00;99033.22;5070196;28;20234;-88
2023/06/24 04:03:32;;;;;;;8.17;7.10;;;;;;;14.85;100.00;99033.72;5074496;28;20246;-88
2023/06/24 04:06:01;;;;;;;8.00;7.17;;;;;;;14.94;100.00;99037.53;5074350;28;20208;-88
2023/06/24 04:08:29;;;;;;;8.80;6.80;;;;;;;14.99;100.00;99035.41;5074656;28;20207;-88
2023/06/24 04:10:55;;;;;;;7.83;6.83;;;;;;;15.05;100.00;99034.97;5074318;28;20331;-88
2023/06/24 04:13:22;;;;;;;8.27;6.67;;;;;;;15.10;100.00;99043.47;5074168;28;20722;-88
2023/06/24 04:15:48;;;;;;;8.60;6.73;;;;;;;15.17;100.00;99044.72;5074902;28;20203;-88
2023/06/24 04:18:15;;;;;;;8.23;7.23;;;;;;;15.20;100.00;99045.34;5074593;28;20218;-88
2023/06/24 04:20:41;;;;;;;8.17;6.93;;;;;;;15.29;100.00;99043.81;5074149;28;20204;-87
2023/06/24 04:23:10;;;;;;;8.33;7.13;;;;;;;15.31;100.00;99041.88;5074028;28;20235;-88
2023/06/24 04:25:37;;;;;;;7.63;6.60;;;;;;;15.39;100.00;99052.88;5074649;28;20672;-87
2023/06/24 04:28:04;;;;;;;7.93;6.70;;;;;;;15.45;100.00;99049.75;5074256;28;20291;-88
2023/06/24 04:30:31;;;;;;;7.40;6.47;;;;;;;15.52;100.00;99051.00;5074332;28;20269;-88
2023/06/24 04:32:57;;;;;;;8.00;6.63;;;;;;;15.60;100.00;99053.94;5074384;28;20227;-88
2023/06/24 04:35:25;;;;;;;9.40;7.37;;;;;;;15.60;100.00;99053.94;5074671;28;20207;-88
2023/06/24 04:37:51;;;;;;;7.67;6.80;;;;;;;15.61;100.00;99058.28;5074680;28;20215;-88
2023/06/24 04:40:19;;;;;;;7.73;6.77;;;;;;;15.68;100.00;99056.84;5074282;28;20239;-87
2023/06/24 04:42:46;;;;;;;7.73;6.37;;;;;;;15.75;100.00;99068.75;5074138;28;20235;-88
2023/06/24 04:45:13;;;;;;;6.53;5.90;;;;;;;15.79;100.00;99070.22;5074152;28;20297;-88
2023/06/24 04:47:39;;;;;;;8.33;6.77;;;;;;;15.85;100.00;99067.97;5074073;28;20210;-88
2023/06/24 04:50:09;;;;;;;9.10;6.77;;;;;;;15.92;100.00;99065.66;5074017;28;20211;-88
2023/06/24 04:52:35;;;;;;;7.90;7.07;;;;;;;15.99;100.00;99067.75;5074135;28;20323;-88
2023/06/24 04:55:02;;;;;;;9.20;7.07;;;;;;;16.02;100.00;99057.72;5074144;28;20207;-88
2023/06/24 04:57:34;;;;;;;7.70;6.17;;;;;;;16.08;100.00;99066.22;5074227;28;20203;-88
2023/06/24 05:00:00;;;;;;;7.67;6.40;;;;;;;16.22;100.00;99057.00;5074033;28;20219;-88
2023/06/24 05:02:27;;;;;;;7.20;6.33;;;;;;;16.48;100.00;99061.22;5073780;28;20242;-88
2023/06/24 05:04:54;;;;;;;6.63;5.97;;;;;;;16.88;100.00;99053.59;5074217;28;20704;-88
2023/06/24 05:07:20;;;;;;;7.10;5.87;;;;;;;17.21;100.00;99050.84;5073932;28;20579;-88
2023/06/24 05:09:48;;;;;;;7.87;6.80;;;;;;;17.52;98.96;99061.59;5073440;28;20584;-88
2023/06/24 05:12:14;;;;;;;7.10;5.63;;;;;;;17.88;97.38;99058.53;5075226;28;20900;-87
2023/06/24 05:14:42;;;;;;;5.67;5.07;;;;;;;18.18;95.78;99061.28;5073323;28;20203;-88
2023/06/24 05:17:08;;;;;;;8.03;5.97;;;;;;;18.60;94.28;99062.97;5074089;28;20204;-88
2023/06/24 05:19:35;;;;;;;7.10;5.90;;;;;;;19.03;91.99;99055.53;5073981;28;20212;-88
2023/06/24 05:22:01;;;;;;;7.00;5.77;;;;;;;19.54;88.92;99056.25;5073388;28;20234;-87
2023/06/24 05:24:28;;;;;;;6.27;5.67;;;;;;;20.00;85.75;99052.88;5073359;28;20220;-88
2023/06/24 05:26:54;;;;;;;8.00;5.87;;;;;;;20.38;82.30;99051.00;5073515;28;20222;-88
2023/06/24 05:29:21;;;;;;;6.70;6.00;;;;;;;20.74;78.53;99043.97;5073398;28;20203;-88
2023/06/24 05:31:49;;;;;;;6.50;5.73;;;;;;;21.08;74.33;99037.88;5073079;28;20230;-88
2023/06/24 05:34:16;;;;;;;6.20;5.60;;;;;;;21.40;70.99;99024.81;5073250;28;20599;-88
2023/06/24 05:36:42;;;;;;;5.87;5.27;;;;;;;21.71;69.69;99030.72;5072809;28;20215;-88
2023/06/24 05:39:09;;;;;;;5.50;5.00;;;;;;;21.98;67.57;99028.78;5072982;28;20226;-88
2023/06/24 05:41:36;;;;;;;5.47;4.83;;;;;;;22.21;67.47;99024.59;5073113;28;20234;-88
2023/06/24 05:44:03;;;;;;;7.07;5.47;;;;;;;22.52;65.05;99023.13;5073099;28;20227;-88
2023/06/24 05:46:30;;;;;;;5.90;5.00;;;;;;;22.81;63.85;99018.22;5072862;28;20280;-88
2023/06/24 05:48:58;;;;;;;7.43;4.80;;;;;;;23.00;63.51;99018.00;5072832;28;20627;-88
2023/06/24 05:51:24;;;;;;;6.47;4.80;;;;;;;23.21;61.61;99021.13;5072494;28;20222;-88
2023/06/24 05:53:51;;;;;;;5.50;5.00;;;;;;;23.40;60.31;99015.44;5072799;28;20235;-88
2023/06/24 05:56:19;;;;;;;6.83;5.00;;;;;;;23.58;60.13;99012.63;5073061;28;20294;-88
2023/06/24 05:58:45;;;;;;;5.10;4.60;;;;;;;23.79;59.27;99011.16;5072935;28;20568;-88
2023/06/24 06:01:12;;;;;;;6.57;4.40;;;;;;;23.98;57.57;99004.59;5072806;28;20231;-88
2023/06/24 06:03:38;;;;;;;5.63;4.73;;;;;;;24.12;56.55;98996.66;5072276;28;20231;-88
2023/06/24 06:06:06;;;;;;;5.20;4.60;;;;;;;24.37;55.92;99005.56;5072298;28;20203;-87
2023/06/24 06:08:33;;;;;;;5.70;4.57;;;;;;;24.54;54.90;98997.25;5072590;28;20256;-88
2023/06/24 06:11:01;;;;;;;5.23;4.73;;;;;;;24.58;53.99;98993.25;5072157;28;20218;-88
2023/06/24 06:13:28;;;;;;;5.20;4.80;;;;;;;24.77;54.41;98992.84;5072662;28;20255;-88
2023/06/24 06:15:54;;;;;;;5.03;4.50;;;;;;;24.90;53.12;98995.84;5072437;28;20214;-87
2023/06/24 06:18:21;;;;;;;5.27;4.47;;;;;;;25.09;53.33;98998.13;5072125;28;20573;-87
2023/06/24 06:20:47;;;;;;;4.73;4.33;;;;;;;25.23;52.72;99004.66;5071893;28;20211;-87
2023/06/24 06:23:16;;;;;;;5.47;4.97;;;;;;;25.29;51.89;98991.25;5072223;28;20246;-87
2023/06/24 06:25:43;;;;;;;5.37;4.77;;;;;;;25.48;51.73;98996.22;5071984;28;20208;-87
2023/06/24 06:28:09;;;;;;;4.90;4.50;;;;;;;25.73;51.52;98986.91;5072053;28;20329;-87
2023/06/24 06:30:36;;;;;;;5.60;5.00;;;;;;;25.93;49.99;98981.88;5071716;28;20230;-87
2023/06/24 06:33:02;;;;;;;5.07;4.40;;;;;;;26.00;49.62;98972.84;5071644;28;20342;-87
2023/06/24 06:35:29;;;;;;;5.07;4.57;;;;;;;26.11;49.89;98983.25;5072304;28;20242;-77
2023/06/24 06:37:55;;;;;;;5.30;4.50;;;;;;;26.18;48.80;98975.22;5072017;28;20206;-78
2023/06/24 06:40:23;;;;;;;5.20;4.70;;;;;;;26.18;48.60;98977.94;5071520;28;20214;-78
2023/06/24 06:42:50;;;;;;;5.37;4.87;;;;;;;26.19;48.96;98966.91;5071658;28;20234;-78
2023/06/24 06:45:17;;;;;;;5.60;4.70;;;;;;;26.28;48.43;98973.94;5071890;28;20299;-79
2023/06/24 06:47:43;;;;;;;4.87;4.40;;;;;;;26.31;48.90;98973.56;5071555;28;20207;-81
2023/06/24 06:50:10;;;;;;;5.27;4.77;;;;;;;26.33;48.69;98968.81;5071398;28;20219;-80
2023/06/24 06:52:38;;;;;;;5.07;4.50;;;;;;;26.52;48.61;98976.38;5071464;28;20231;-76
2023/06/24 06:55:05;;;;;;;4.67;4.27;;;;;;;26.66;47.46;98958.47;5071830;28;20651;-81
2023/06/24 06:57:33;;;;;;;4.50;4.10;;;;;;;26.74;47.66;98961.94;5071462;28;20204;-84
2023/06/24 06:59:59;;;;;;;4.90;4.40;;;;;;;26.78;48.19;98968.69;5071377;28;20199;-84
2023/06/24 07:02:26;;;;;;;4.43;4.03;;;;;;;26.85;47.00;98964.19;5071544;28;20235;-83
2023/06/24 07:04:52;;;;;;;4.77;4.27;;;;;;;26.82;47.63;98964.56;5071630;28;20646;-84
2023/06/24 07:07:19;;;;;;;4.10;3.70;;;;;;;26.81;47.34;98965.59;5072346;28;20211;-84
2023/06/24 07:09:46;;;;;;;4.75;4.35;;;;;;;26.73;47.09;98960.25;5071676;28;20585;-84
2023/06/24 07:12:13;;;;;;;4.60;4.20;;;;;;;26.40;47.28;98958.91;5071498;28;20297;-84
2023/06/24 07:14:41;;;;;;;4.87;4.37;;;;;;;26.01;47.00;98955.56;5071560;28;20211;-84
2023/06/24 07:17:08;;;;;;;4.80;4.30;;;;;;;25.32;49.21;98971.13;5071951;28;20214;-82
2023/06/24 07:19:34;;;;;;;4.47;4.00;;;;;;;24.75;50.14;98962.41;5071115;28;20238;-82
2023/06/24 07:22:01;;;;;;;4.30;3.90;;;;;;;24.24;51.14;98973.69;5071243;28;20209;-85
2023/06/24 07:24:27;;;;;;;4.40;4.00;;;;;;;24.10;53.54;98998.69;5071350;28;20222;-83
2023/06/24 07:26:59;;;;;;;5.57;4.73;;;;;;;23.92;54.55;99000.72;5071162;28;20211;-84
2023/06/24 07:29:26;;;;;;;5.40;4.60;;;;;;;23.71;54.54;98996.78;5071709;28;20245;-84
2023/06/24 07:31:53;;;;;;;4.33;3.90;;;;;;;23.61;55.33;98994.25;5075516;28;20241;-84
2023/06/24 07:34:20;;;;;;;5.17;4.30;;;;;;;23.41;52.61;98979.34;5075887;28;20330;-84
2023/06/24 07:36:46;;;;;;;4.50;4.00;;;;;;;23.41;53.55;98983.94;5072162;28;20211;-84
2023/06/24 07:39:13;;;;;;;4.97;4.47;;;;;;;23.43;54.43;98993.56;5074856;28;20203;-84
2023/06/24 07:41:40;;;;;;;4.53;4.10;;;;;;;23.40;54.12;98985.78;5075031;28;20668;-84
2023/06/24 07:44:06;;;;;;;4.30;3.87;;;;;;;23.47;55.11;98989.50;5075698;28;20239;-84
2023/06/24 07:46:33;;;;;;;5.17;4.13;;;;;;;23.58;55.27;98991.88;5074983;28;20225;-84
2023/06/24 07:49:01;;;;;;;4.30;3.83;;;;;;;23.59;55.17;98990.03;5074984;28;20214;-84
2023/06/24 07:51:27;;;;;;;4.57;4.10;;;;;;;23.72;55.83;98999.31;5075199;28;20593;-84
2023/06/24 07:53:54;;;;;;;4.50;4.03;;;;;;;23.78;55.34;99004.03;5074891;28;20238;-84
2023/06/24 07:56:20;;;;;;;4.63;3.90;;;;;;;23.84;53.26;98987.16;5074905;28;20207;-84
2023/06/24 07:58:47;;;;;;;4.63;4.20;;;;;;;23.84;52.43;98970.97;5075190;28;20204;-84
2023/06/24 08:01:13;;;;;;;4.03;3.73;;;;;;;23.86;52.61;98973.50;5074684;28;20835;-84
2023/06/24 08:03:40;;;;;;;6.00;4.17;;;;;;;23.97;51.76;98965.94;5074698;28;20231;-84
2023/06/24 08:06:08;;;;;;;4.53;4.10;;;;;;;24.06;50.70;98958.66;5072732;28;20207;-84
2023/06/24 08:08:35;;;;;;;5.17;3.90;;;;;;;24.11;51.83;98962.56;5074104;28;20214;-84
2023/06/24 08:11:02;;;;;;;4.37;3.97;;;;;;;24.20;51.19;98969.63;5073863;28;20251;-83
2023/06/24 08:13:29;;;;;;;4.20;3.80;;;;;;;24.26;50.43;98960.81;5073917;28;20232;-84
2023/06/24 08:15:55;;;;;;;5.17;3.70;;;;;;;24.26;49.86;98950.03;5073637;28;20593;-84
2023/06/24 08:18:22;;;;;;;4.23;3.67;;;;;;;24.41;49.79;98945.59;5074252;28;20302;-88
2023/06/24 08:20:48;;;;;;;4.00;3.60;;;;;;;24.44;49.21;98942.53;5074054;28;20208;-83
2023/06/24 08:23:16;;;;;;;5.80;3.73;;;;;;;24.57;47.94;98942.88;5074276;28;20232;-82
2023/06/24 08:25:43;;;;;;;4.20;3.80;;;;;;;24.71;48.03;98939.47;5074246;28;20211;-82
2023/06/24 08:28:09;;;;;;;4.10;3.60;;;;;;;24.73;49.38;98944.66;5074543;28;20219;-84
2023/06/24 08:30:36;;;;;;;3.90;3.60;;;;;;;24.71;49.15;98942.16;5074266;28;20305;-88
2023/06/24 08:33:02;;;;;;;4.07;3.67;;;;;;;24.78;50.01;98950.41;5074476;28;20235;-90
2023/06/24 08:35:29;;;;;;;4.10;3.70;;;;;;;24.85;49.01;98941.41;5074213;28;20590;-89
2023/06/24 08:37:55;;;;;;;3.43;3.13;;;;;;;24.90;46.41;98917.41;5074587;28;20227;-89
2023/06/24 08:40:23;;;;;;;3.87;3.40;;;;;;;24.86;47.35;98926.88;5073877;28;20214;-89
2023/06/24 08:42:49;;;;;;;4.53;3.40;;;;;;;24.86;45.44;98910.66;5074581;28;20232;-90
2023/06/24 08:45:16;;;;;;;4.10;3.70;;;;;;;24.89;43.85;98914.88;5073917;28;20230;-90
2023/06/24 08:47:44;;;;;;;4.73;3.80;;;;;;;24.76;45.70;98939.75;5074337;28;20218;-90
2023/06/24 08:50:13;;;;;;;3.53;3.23;;;;;;;24.84;45.68;98928.06;5074140;28;20291;-89
2023/06/24 08:52:43;;;;;;;3.63;3.33;;;;;;;24.97;47.67;98955.38;5074346;28;20261;-90
2023/06/24 08:55:13;;;;;;;3.40;3.10;;;;;;;25.06;47.21;98944.34;5074238;28;20224;-89
2023/06/24 08:57:41;;;;;;;3.60;3.30;;;;;;;25.23;48.49;98951.34;5074210;28;20203;-89
2023/06/24 09:00:09;;;;;;;4.13;3.60;;;;;;;25.37;47.23;98947.91;5073747;28;20215;-90
2023/06/24 09:02:38;;;;;;;4.23;3.33;;;;;;;25.38;45.95;98933.38;5073946;28;20232;-90
2023/06/24 09:05:05;;;;;;;3.43;2.90;;;;;;;25.40;44.88;98935.88;5074090;28;20211;-90
2023/06/24 09:07:32;;;;;;;3.53;3.10;;;;;;;25.59;43.85;98925.41;5073498;28;20211;-89
2023/06/24 09:10:00;;;;;;;3.50;3.00;;;;;;;25.71;43.45;98917.69;5073671;28;20226;-90
2023/06/24 09:12:27;;;;;;;5.90;3.10;;;;;;;25.82;42.62;98920.84;5073512;28;20333;-90
2023/06/24 09:14:54;;;;;;;4.60;3.23;;;;;;;25.71;41.84;98913.13;5073836;28;20219;-90
2023/06/24 09:17:22;;;;;;;3.40;3.10;;;;;;;25.44;41.53;98905.59;5073612;28;20215;-90
2023/06/24 09:19:48;;;;;;;3.50;3.13;;;;;;;25.38;42.84;98913.56;5073225;28;20235;-87
2023/06/24 09:22:17;;;;;;;4.23;3.63;;;;;;;25.10;43.09;98912.34;5073421;28;20225;-88
2023/06/24 09:24:46;;;;;;;4.07;3.63;;;;;;;25.22;42.98;98906.38;5073340;28;20231;-89
2023/06/24 09:27:14;;;;;;;3.80;3.50;;;;;;;25.17;42.68;98892.53;5073371;28;20241;-89
2023/06/24 09:29:41;;;;;;;3.93;3.30;;;;;;;25.09;42.40;98887.19;5073322;28;20215;-91
2023/06/24 09:32:10;;;;;;;4.07;3.63;;;;;;;24.76;42.80;98887.56;5073006;28;20210;-88
2023/06/24 09:34:37;;;;;;;3.77;3.40;;;;;;;24.87;42.94;98889.88;5072940;28;20207;-88
2023/06/24 09:37:03;;;;;;;3.40;3.00;;;;;;;24.89;43.89;98888.66;5073526;28;20211;-89
2023/06/24 09:39:36;;;;;;;4.13;3.10;;;;;;;25.20;44.23;98897.59;5073001;28;20214;-88
2023/06/24 09:42:04;;;;;;;3.53;2.80;;;;;;;25.49;42.08;98881.50;5073293;28;20584;-88
2023/06/24 09:44:31;;;;;;;3.20;2.90;;;;;;;25.62;41.22;98881.75;5075917;28;20341;-88
2023/06/24 09:46:58;;;;;;;2.70;2.50;;;;;;;25.69;39.09;98855.63;5075961;28;20678;-88
2023/06/24 09:49:26;;;;;;;3.17;2.87;;;;;;;25.66;39.20;98861.38;5075319;28;20204;-88
2023/06/24 09:51:57;;;;;;;3.13;2.83;;;;;;;25.53;39.79;98855.75;5073729;28;20207;-84
2023/06/24 09:54:27;;;;;;;2.60;2.40;;;;;;;25.59;41.48;98873.97;5072785;28;20574;-84
2023/06/24 09:56:54;;;;;;;3.93;2.90;;;;;;;25.89;42.62;98889.28;5072395;28;20211;-87
2023/06/24 09:59:22;;;;;;;3.03;2.73;;;;;;;26.05;41.66;98875.63;5071429;28;20214;-84
2023/06/24 10:01:50;;;;;;;2.90;2.70;;;;;;;26.14;41.97;98888.03;5072415;28;20206;-79
2023/06/24 10:04:18;;;;;;;4.93;2.67;;;;;;;26.32;42.00;98883.09;5072414;28;20235;-81
2023/06/24 10:06:47;;;;;;;3.10;2.80;;;;;;;26.40;40.58;98872.13;5072351;28;20567;-86
2023/06/24 10:09:16;;;;;;;4.57;3.03;;;;;;;26.36;39.53;98854.59;5072036;28;20302;-85
2023/06/24 10:11:43;;;;;;;4.93;3.10;;;;;;;26.31;39.20;98850.75;5072290;28;20203;-83
2023/06/24 10:14:10;;;;;;;2.60;2.40;;;;;;;26.19;39.36;98842.25;5072200;28;20728;-83
2023/06/24 10:16:37;;;;;;;2.80;2.50;;;;;;;26.25;38.78;98849.63;5072400;28;20210;-87
2023/06/24 10:19:04;;;;;;;3.00;2.70;;;;;;;25.99;38.41;98841.13;5072344;28;20211;-87
2023/06/24 10:21:58;;;;;;;3.30;2.95;;;;;;;25.86;38.12;98830.06;5072016;28;20208;-84
2023/06/24 10:24:32;;;;;;;2.80;2.60;;;;;;;25.85;38.37;98833.78;5057750;28;20244;-85
2023/06/24 10:27:03;;;;;;;2.78;2.58;;;;;;;25.95;38.21;98831.69;5072046;28;20214;-85
2023/06/24 10:29:32;;;;;;;3.13;2.40;;;;;;;26.10;38.96;98842.53;5071932;28;20211;-85
2023/06/24 10:32:03;;;;;;;2.90;2.60;;;;;;;26.15;37.54;98827.38;5072027;28;20218;-86
2023/06/24 10:34:32;;;;;;;2.60;2.28;;;;;;;26.35;37.94;98831.22;5071797;28;20212;-86
2023/06/24 10:37:02;;;;;;;3.27;2.40;;;;;;;26.31;37.24;98816.34;5071669;28;20242;-86
2023/06/24 10:39:40;;;;;;;3.80;2.70;;;;;;;26.31;36.83;98808.22;5071311;28;20207;-86
2023/06/24 10:42:29;;;;;;;3.60;2.80;;;;;;;26.41;38.24;98825.06;5071715;28;20210;-85
2023/06/24 10:44:56;;;;;;;3.13;2.85;;;;;;;26.36;39.90;98838.31;5071683;28;20231;-86
2023/06/24 10:47:24;;;;;;;3.42;3.10;;;;;;;26.55;40.88;98845.06;5071673;28;20223;-86
2023/06/24 10:49:51;;;;;;;4.20;2.80;;;;;;;26.62;38.20;98816.13;5071474;28;20226;-86
2023/06/24 10:52:21;;;;;;;4.15;3.20;;;;;;;26.47;38.89;98818.88;5071560;28;20243;-85
2023/06/24 10:54:48;;;;;;;2.87;2.60;;;;;;;26.48;39.14;98811.56;5071772;28;20579;-86
2023/06/24 10:57:14;;;;;;;3.13;2.83;;;;;;;26.56;38.18;98806.91;5071534;28;20207;-85
2023/06/24 10:59:41;;;;;;;3.63;2.75;;;;;;;26.43;38.33;98798.59;5071185;28;20213;-86
2023/06/24 11:02:09;;;;;;;3.92;3.17;;;;;;;26.51;37.66;98793.03;5071267;28;20666;-85
2023/06/24 11:04:43;;;;;;;3.05;2.72;;;;;;;26.48;36.85;98777.16;5071755;28;20223;-84
2023/06/24 11:07:10;;;;;;;3.28;2.90;;;;;;;26.38;38.45;98790.16;5071630;28;20692;-83
2023/06/24 11:09:37;;;;;;;3.97;2.92;;;;;;;26.29;37.96;98783.19;5071279;28;20213;-84
2023/06/24 11:12:05;;;;;;;2.67;2.47;;;;;;;26.37;37.50;98777.66;5071717;28;20216;-82
2023/06/24 11:14:33;;;;;;;3.20;2.83;;;;;;;26.54;37.61;98781.88;5071555;28;20207;-84
2023/06/24 11:17:01;;;;;;;3.40;3.10;;;;;;;26.62;36.61;98768.19;5071414;28;20225;-83
2023/06/24 11:19:28;;;;;;;2.65;2.45;;;;;;;26.74;36.88;98763.94;5071251;28;20211;-84
2023/06/24 11:21:54;;;;;;;2.47;2.28;;;;;;;26.83;36.37;98762.75;5071185;28;20670;-84
2023/06/24 11:24:21;;;;;;;2.97;2.58;;;;;;;26.76;35.16;98742.88;5071063;28;20321;-83
2023/06/24 11:26:49;;;;;;;2.85;2.47;;;;;;;26.84;36.19;98750.06;5071269;28;20214;-83
2023/06/24 11:29:15;;;;;;;2.80;2.60;;;;;;;26.80;34.59;98732.47;5071433;28;20204;-83
2023/06/24 11:31:42;;;;;;;2.33;2.13;;;;;;;26.66;34.43;98726.09;5071004;28;20208;-83